sensor_id;sensor_type;location;lat;lon;timestamp;P1;durP1;ratioP1;P2;durP2;ratioP2
81714;SDS011;71125;44.066;2.982;2023-08-24T00:02:13;10.20;;;3.55;;
81714;SDS011;71125;44.066;2.982;2023-08-24T00:04:39;13.35;;;3.28;;
81714;SDS011;71125;44.066;2.982;2023-08-24T00:07:05;16.67;;;3.83;;
81714;SDS011;71125;44.066;2.982;2023-08-24T00:09:31;9.38;;;3.35;;
81714;SDS011;71125;44.066;2.982;2023-08-24T00:11:57;8.60;;;3.15;;
81714;SDS011;71125;44.066;2.982;2023-08-24T00:14:23;10.88;;;3.53;;
81714;SDS011;71125;44.066;2.982;2023-08-24T00:16:49;10.75;;;3.20;;
81714;SDS011;71125;44.066;2.982;2023-08-24T00:19:15;12.55;;;3.72;;
81714;SDS011;71125;44.066;2.982;2023-08-24T00:21:41;11.77;;;3.85;;
81714;SDS011;71125;44.066;2.982;2023-08-24T00:24:07;11.52;;;3.95;;
81714;SDS011;71125;44.066;2.982;2023-08-24T00:26:33;12.27;;;3.85;;
81714;SDS011;71125;44.066;2.982;2023-08-24T00:28:59;13.48;;;3.67;;
81714;SDS011;71125;44.066;2.982;2023-08-24T00:31:25;13.43;;;3.90;;
81714;SDS011;71125;44.066;2.982;2023-08-24T00:33:51;18.70;;;3.97;;
81714;SDS011;71125;44.066;2.982;2023-08-24T00:36:17;10.55;;;3.53;;
81714;SDS011;71125;44.066;2.982;2023-08-24T00:38:44;8.95;;;3.05;;
81714;SDS011;71125;44.066;2.982;2023-08-24T00:41:10;14.50;;;3.60;;
81714;SDS011;71125;44.066;2.982;2023-08-24T00:43:36;10.98;;;3.55;;
81714;SDS011;71125;44.066;2.982;2023-08-24T00:46:03;12.68;;;3.63;;
81714;SDS011;71125;44.066;2.982;2023-08-24T00:48:29;9.15;;;3.42;;
81714;SDS011;71125;44.066;2.982;2023-08-24T00:51:00;12.90;;;3.78;;
81714;SDS011;71125;44.066;2.982;2023-08-24T00:53:26;12.23;;;3.47;;
81714;SDS011;71125;44.066;2.982;2023-08-24T00:55:53;14.85;;;3.95;;
81714;SDS011;71125;44.066;2.982;2023-08-24T00:58:20;13.55;;;4.13;;
81714;SDS011;71125;44.066;2.982;2023-08-24T01:00:46;11.95;;;4.43;;
81714;SDS011;71125;44.066;2.982;2023-08-24T01:03:12;12.30;;;3.83;;
81714;SDS011;71125;44.066;2.982;2023-08-24T01:05:38;11.48;;;3.90;;
81714;SDS011;71125;44.066;2.982;2023-08-24T01:08:04;12.48;;;3.65;;
81714;SDS011;71125;44.066;2.982;2023-08-24T01:10:33;11.00;;;3.72;;
81714;SDS011;71125;44.066;2.982;2023-08-24T01:13:09;12.35;;;3.55;;
81714;SDS011;71125;44.066;2.982;2023-08-24T01:18:06;10.77;;;3.95;;
81714;SDS011;71125;44.066;2.982;2023-08-24T01:20:34;7.85;;;3.70;;
81714;SDS011;71125;44.066;2.982;2023-08-24T01:25:53;17.10;;;4.78;;
81714;SDS011;71125;44.066;2.982;2023-08-24T01:28:19;10.00;;;4.20;;
81714;SDS011;71125;44.066;2.982;2023-08-24T01:30:47;14.35;;;4.40;;
81714;SDS011;71125;44.066;2.982;2023-08-24T01:33:13;11.45;;;3.53;;
81714;SDS011;71125;44.066;2.982;2023-08-24T01:35:40;9.68;;;3.95;;
81714;SDS011;71125;44.066;2.982;2023-08-24T01:38:06;13.13;;;4.35;;
81714;SDS011;71125;44.066;2.982;2023-08-24T01:40:59;13.85;;;3.72;;
81714;SDS011;71125;44.066;2.982;2023-08-24T01:43:25;11.07;;;3.70;;
81714;SDS011;71125;44.066;2.982;2023-08-24T01:45:54;14.30;;;3.80;;
81714;SDS011;71125;44.066;2.982;2023-08-24T01:48:21;11.38;;;3.58;;
81714;SDS011;71125;44.066;2.982;2023-08-24T01:50:49;14.57;;;4.35;;
81714;SDS011;71125;44.066;2.982;2023-08-24T01:53:15;14.05;;;3.85;;
81714;SDS011;71125;44.066;2.982;2023-08-24T01:55:41;17.02;;;4.20;;
81714;SDS011;71125;44.066;2.982;2023-08-24T01:58:08;13.23;;;4.28;;
81714;SDS011;71125;44.066;2.982;2023-08-24T02:00:34;11.38;;;4.28;;
81714;SDS011;71125;44.066;2.982;2023-08-24T02:03:00;11.90;;;4.00;;
81714;SDS011;71125;44.066;2.982;2023-08-24T02:05:26;17.88;;;4.28;;
81714;SDS011;71125;44.066;2.982;2023-08-24T02:07:54;29.02;;;4.13;;
81714;SDS011;71125;44.066;2.982;2023-08-24T02:10:20;11.35;;;4.22;;
81714;SDS011;71125;44.066;2.982;2023-08-24T02:12:46;9.93;;;3.78;;
81714;SDS011;71125;44.066;2.982;2023-08-24T02:15:12;10.95;;;4.38;;
81714;SDS011;71125;44.066;2.982;2023-08-24T02:17:38;11.23;;;4.03;;
81714;SDS011;71125;44.066;2.982;2023-08-24T02:20:05;13.45;;;3.78;;
81714;SDS011;71125;44.066;2.982;2023-08-24T02:22:33;9.05;;;4.30;;
81714;SDS011;71125;44.066;2.982;2023-08-24T02:24:59;11.25;;;4.20;;
81714;SDS011;71125;44.066;2.982;2023-08-24T02:27:26;15.75;;;3.88;;
81714;SDS011;71125;44.066;2.982;2023-08-24T02:29:52;14.82;;;4.78;;
81714;SDS011;71125;44.066;2.982;2023-08-24T02:32:18;9.23;;;4.15;;
81714;SDS011;71125;44.066;2.982;2023-08-24T02:34:44;15.80;;;3.95;;
81714;SDS011;71125;44.066;2.982;2023-08-24T02:37:10;8.85;;;4.03;;
81714;SDS011;71125;44.066;2.982;2023-08-24T02:39:36;11.82;;;4.70;;
81714;SDS011;71125;44.066;2.982;2023-08-24T02:42:02;12.10;;;3.92;;
81714;SDS011;71125;44.066;2.982;2023-08-24T02:44:29;16.98;;;4.43;;
81714;SDS011;71125;44.066;2.982;2023-08-24T02:46:56;11.43;;;3.72;;
81714;SDS011;71125;44.066;2.982;2023-08-24T02:49:22;14.27;;;4.53;;
81714;SDS011;71125;44.066;2.982;2023-08-24T02:51:48;13.40;;;4.40;;
81714;SDS011;71125;44.066;2.982;2023-08-24T02:54:14;10.80;;;4.40;;
81714;SDS011;71125;44.066;2.982;2023-08-24T02:56:41;12.07;;;4.50;;
81714;SDS011;71125;44.066;2.982;2023-08-24T02:59:07;10.25;;;4.13;;
81714;SDS011;71125;44.066;2.982;2023-08-24T03:01:33;17.95;;;4.90;;
81714;SDS011;71125;44.066;2.982;2023-08-24T03:03:59;9.07;;;4.40;;
81714;SDS011;71125;44.066;2.982;2023-08-24T03:06:25;9.27;;;4.30;;
81714;SDS011;71125;44.066;2.982;2023-08-24T03:08:51;18.60;;;4.72;;
81714;SDS011;71125;44.066;2.982;2023-08-24T03:11:17;13.95;;;3.85;;
81714;SDS011;71125;44.066;2.982;2023-08-24T03:13:43;11.60;;;4.82;;
81714;SDS011;71125;44.066;2.982;2023-08-24T03:16:09;16.13;;;4.75;;
81714;SDS011;71125;44.066;2.982;2023-08-24T03:18:35;12.82;;;5.00;;
81714;SDS011;71125;44.066;2.982;2023-08-24T03:21:01;9.27;;;4.80;;
81714;SDS011;71125;44.066;2.982;2023-08-24T03:23:27;12.75;;;4.53;;
81714;SDS011;71125;44.066;2.982;2023-08-24T03:25:54;15.88;;;4.40;;
81714;SDS011;71125;44.066;2.982;2023-08-24T03:28:21;10.25;;;4.43;;
81714;SDS011;71125;44.066;2.982;2023-08-24T03:30:48;13.57;;;4.90;;
81714;SDS011;71125;44.066;2.982;2023-08-24T03:33:15;10.68;;;4.38;;
81714;SDS011;71125;44.066;2.982;2023-08-24T03:35:41;12.50;;;4.55;;
81714;SDS011;71125;44.066;2.982;2023-08-24T03:38:07;11.80;;;4.28;;
81714;SDS011;71125;44.066;2.982;2023-08-24T03:40:34;9.23;;;4.07;;
81714;SDS011;71125;44.066;2.982;2023-08-24T03:43:01;12.25;;;4.22;;
81714;SDS011;71125;44.066;2.982;2023-08-24T03:45:27;16.45;;;4.60;;
81714;SDS011;71125;44.066;2.982;2023-08-24T03:47:53;14.60;;;5.03;;
81714;SDS011;71125;44.066;2.982;2023-08-24T03:50:19;20.70;;;4.60;;
81714;SDS011;71125;44.066;2.982;2023-08-24T03:52:47;9.02;;;4.60;;
81714;SDS011;71125;44.066;2.982;2023-08-24T03:55:13;12.60;;;4.78;;
81714;SDS011;71125;44.066;2.982;2023-08-24T03:57:39;15.43;;;4.40;;
81714;SDS011;71125;44.066;2.982;2023-08-24T04:00:06;19.65;;;5.22;;
81714;SDS011;71125;44.066;2.982;2023-08-24T04:02:36;13.30;;;5.00;;
81714;SDS011;71125;44.066;2.982;2023-08-24T04:05:03;13.38;;;4.80;;
81714;SDS011;71125;44.066;2.982;2023-08-24T04:07:29;10.60;;;4.50;;
81714;SDS011;71125;44.066;2.982;2023-08-24T04:09:56;15.00;;;5.15;;
81714;SDS011;71125;44.066;2.982;2023-08-24T04:12:22;15.82;;;4.93;;
81714;SDS011;71125;44.066;2.982;2023-08-24T04:14:48;14.05;;;5.30;;
81714;SDS011;71125;44.066;2.982;2023-08-24T04:17:14;16.00;;;4.43;;
81714;SDS011;71125;44.066;2.982;2023-08-24T04:19:41;11.32;;;4.70;;
81714;SDS011;71125;44.066;2.982;2023-08-24T04:22:07;14.52;;;4.97;;
81714;SDS011;71125;44.066;2.982;2023-08-24T04:24:33;14.93;;;4.53;;
81714;SDS011;71125;44.066;2.982;2023-08-24T04:26:59;9.05;;;4.53;;
81714;SDS011;71125;44.066;2.982;2023-08-24T04:29:25;11.93;;;4.68;;
81714;SDS011;71125;44.066;2.982;2023-08-24T04:31:51;12.10;;;4.60;;
81714;SDS011;71125;44.066;2.982;2023-08-24T04:34:17;11.52;;;4.80;;
81714;SDS011;71125;44.066;2.982;2023-08-24T04:36:43;9.00;;;4.78;;
81714;SDS011;71125;44.066;2.982;2023-08-24T04:39:11;13.02;;;4.50;;
81714;SDS011;71125;44.066;2.982;2023-08-24T04:44:44;21.23;;;5.45;;
81714;SDS011;71125;44.066;2.982;2023-08-24T04:47:15;17.30;;;5.70;;
81714;SDS011;71125;44.066;2.982;2023-08-24T04:49:41;10.82;;;5.07;;
81714;SDS011;71125;44.066;2.982;2023-08-24T04:52:08;12.80;;;4.85;;
81714;SDS011;71125;44.066;2.982;2023-08-24T04:54:34;13.00;;;4.63;;
81714;SDS011;71125;44.066;2.982;2023-08-24T04:57:01;14.13;;;5.03;;
81714;SDS011;71125;44.066;2.982;2023-08-24T04:59:27;10.02;;;4.75;;
81714;SDS011;71125;44.066;2.982;2023-08-24T05:01:53;16.48;;;5.63;;
81714;SDS011;71125;44.066;2.982;2023-08-24T05:04:19;15.15;;;4.93;;
81714;SDS011;71125;44.066;2.982;2023-08-24T05:06:45;12.82;;;4.50;;
81714;SDS011;71125;44.066;2.982;2023-08-24T05:09:12;14.52;;;4.85;;
81714;SDS011;71125;44.066;2.982;2023-08-24T05:11:38;11.25;;;5.00;;
81714;SDS011;71125;44.066;2.982;2023-08-24T05:14:04;13.68;;;5.40;;
81714;SDS011;71125;44.066;2.982;2023-08-24T05:16:30;13.48;;;4.88;;
81714;SDS011;71125;44.066;2.982;2023-08-24T05:18:57;17.17;;;5.75;;
81714;SDS011;71125;44.066;2.982;2023-08-24T05:21:28;10.98;;;5.43;;
81714;SDS011;71125;44.066;2.982;2023-08-24T05:23:54;17.50;;;5.30;;
81714;SDS011;71125;44.066;2.982;2023-08-24T05:26:22;9.45;;;4.90;;
81714;SDS011;71125;44.066;2.982;2023-08-24T05:28:49;20.63;;;5.40;;
81714;SDS011;71125;44.066;2.982;2023-08-24T05:31:16;17.25;;;5.65;;
81714;SDS011;71125;44.066;2.982;2023-08-24T05:33:42;10.85;;;4.97;;
81714;SDS011;71125;44.066;2.982;2023-08-24T05:36:08;10.80;;;4.90;;
81714;SDS011;71125;44.066;2.982;2023-08-24T05:38:34;11.38;;;5.20;;
81714;SDS011;71125;44.066;2.982;2023-08-24T05:41:00;13.02;;;5.05;;
81714;SDS011;71125;44.066;2.982;2023-08-24T05:43:26;20.10;;;4.65;;
81714;SDS011;71125;44.066;2.982;2023-08-24T05:45:52;10.60;;;4.63;;
81714;SDS011;71125;44.066;2.982;2023-08-24T05:48:18;9.95;;;4.32;;
81714;SDS011;71125;44.066;2.982;2023-08-24T05:50:45;12.48;;;4.40;;
81714;SDS011;71125;44.066;2.982;2023-08-24T05:53:11;16.67;;;4.38;;
81714;SDS011;71125;44.066;2.982;2023-08-24T05:55:37;14.20;;;4.57;;
81714;SDS011;71125;44.066;2.982;2023-08-24T05:58:04;15.82;;;5.47;;
81714;SDS011;71125;44.066;2.982;2023-08-24T06:00:30;13.80;;;5.28;;
81714;SDS011;71125;44.066;2.982;2023-08-24T06:02:56;11.35;;;5.28;;
81714;SDS011;71125;44.066;2.982;2023-08-24T06:05:22;15.98;;;5.00;;
81714;SDS011;71125;44.066;2.982;2023-08-24T06:07:48;9.35;;;4.88;;
81714;SDS011;71125;44.066;2.982;2023-08-24T06:10:14;12.07;;;4.47;;
81714;SDS011;71125;44.066;2.982;2023-08-24T06:12:40;13.32;;;4.80;;
81714;SDS011;71125;44.066;2.982;2023-08-24T06:15:06;12.70;;;4.03;;
81714;SDS011;71125;44.066;2.982;2023-08-24T06:17:36;15.23;;;4.32;;
81714;SDS011;71125;44.066;2.982;2023-08-24T06:20:03;8.25;;;4.60;;
81714;SDS011;71125;44.066;2.982;2023-08-24T06:22:29;13.05;;;4.60;;
81714;SDS011;71125;44.066;2.982;2023-08-24T06:24:55;10.40;;;4.35;;
81714;SDS011;71125;44.066;2.982;2023-08-24T06:27:24;11.20;;;4.70;;
81714;SDS011;71125;44.066;2.982;2023-08-24T06:29:50;12.55;;;4.53;;
81714;SDS011;71125;44.066;2.982;2023-08-24T06:32:16;22.17;;;5.20;;
81714;SDS011;71125;44.066;2.982;2023-08-24T06:34:43;18.13;;;4.75;;
81714;SDS011;71125;44.066;2.982;2023-08-24T06:37:09;15.60;;;4.95;;
81714;SDS011;71125;44.066;2.982;2023-08-24T06:39:35;10.68;;;4.63;;
81714;SDS011;71125;44.066;2.982;2023-08-24T06:42:01;14.63;;;5.30;;
81714;SDS011;71125;44.066;2.982;2023-08-24T06:44:27;13.88;;;4.95;;
81714;SDS011;71125;44.066;2.982;2023-08-24T06:46:53;11.50;;;5.13;;
81714;SDS011;71125;44.066;2.982;2023-08-24T06:49:20;12.10;;;4.97;;
81714;SDS011;71125;44.066;2.982;2023-08-24T06:51:46;16.20;;;5.22;;
81714;SDS011;71125;44.066;2.982;2023-08-24T06:54:12;12.70;;;5.20;;
81714;SDS011;71125;44.066;2.982;2023-08-24T06:56:39;13.82;;;5.00;;
81714;SDS011;71125;44.066;2.982;2023-08-24T06:59:06;17.27;;;5.05;;
81714;SDS011;71125;44.066;2.982;2023-08-24T07:01:32;13.07;;;4.63;;
81714;SDS011;71125;44.066;2.982;2023-08-24T07:03:58;10.48;;;4.68;;
81714;SDS011;71125;44.066;2.982;2023-08-24T07:06:24;11.88;;;4.90;;
81714;SDS011;71125;44.066;2.982;2023-08-24T07:08:50;10.40;;;5.10;;
81714;SDS011;71125;44.066;2.982;2023-08-24T07:11:16;14.50;;;5.22;;
81714;SDS011;71125;44.066;2.982;2023-08-24T07:13:42;23.35;;;5.00;;
81714;SDS011;71125;44.066;2.982;2023-08-24T07:16:09;15.50;;;4.70;;
81714;SDS011;71125;44.066;2.982;2023-08-24T07:18:35;16.42;;;5.32;;
81714;SDS011;71125;44.066;2.982;2023-08-24T07:21:02;17.13;;;5.03;;
81714;SDS011;71125;44.066;2.982;2023-08-24T07:23:28;12.98;;;5.03;;
81714;SDS011;71125;44.066;2.982;2023-08-24T07:25:54;13.85;;;4.90;;
81714;SDS011;71125;44.066;2.982;2023-08-24T07:28:20;12.05;;;5.35;;
81714;SDS011;71125;44.066;2.982;2023-08-24T07:30:46;12.90;;;5.25;;
81714;SDS011;71125;44.066;2.982;2023-08-24T07:33:12;12.90;;;4.88;;
81714;SDS011;71125;44.066;2.982;2023-08-24T07:35:38;13.75;;;4.82;;
81714;SDS011;71125;44.066;2.982;2023-08-24T07:38:04;9.85;;;4.00;;
81714;SDS011;71125;44.066;2.982;2023-08-24T07:40:30;11.23;;;4.35;;
81714;SDS011;71125;44.066;2.982;2023-08-24T07:42:56;11.55;;;4.55;;
81714;SDS011;71125;44.066;2.982;2023-08-24T07:45:23;10.80;;;4.38;;
81714;SDS011;71125;44.066;2.982;2023-08-24T07:47:49;11.93;;;4.85;;
81714;SDS011;71125;44.066;2.982;2023-08-24T07:50:24;17.88;;;4.70;;
81714;SDS011;71125;44.066;2.982;2023-08-24T07:52:50;13.23;;;4.72;;
81714;SDS011;71125;44.066;2.982;2023-08-24T07:55:16;16.08;;;4.75;;
81714;SDS011;71125;44.066;2.982;2023-08-24T07:57:42;10.88;;;4.20;;
81714;SDS011;71125;44.066;2.982;2023-08-24T08:00:08;10.90;;;4.40;;
81714;SDS011;71125;44.066;2.982;2023-08-24T08:02:35;11.23;;;4.32;;
81714;SDS011;71125;44.066;2.982;2023-08-24T08:05:02;12.20;;;4.50;;
81714;SDS011;71125;44.066;2.982;2023-08-24T08:07:28;6.07;;;3.88;;
81714;SDS011;71125;44.066;2.982;2023-08-24T08:09:54;12.88;;;4.55;;
81714;SDS011;71125;44.066;2.982;2023-08-24T08:12:21;9.90;;;4.65;;
81714;SDS011;71125;44.066;2.982;2023-08-24T08:14:47;8.38;;;4.30;;
81714;SDS011;71125;44.066;2.982;2023-08-24T08:17:13;11.73;;;4.50;;
81714;SDS011;71125;44.066;2.982;2023-08-24T08:19:39;14.75;;;4.20;;
81714;SDS011;71125;44.066;2.982;2023-08-24T08:22:06;14.43;;;4.40;;
81714;SDS011;71125;44.066;2.982;2023-08-24T08:24:32;7.97;;;3.70;;
81714;SDS011;71125;44.066;2.982;2023-08-24T08:26:58;8.00;;;4.10;;
81714;SDS011;71125;44.066;2.982;2023-08-24T08:29:24;16.15;;;4.68;;
81714;SDS011;71125;44.066;2.982;2023-08-24T08:31:50;10.10;;;4.10;;
81714;SDS011;71125;44.066;2.982;2023-08-24T08:34:16;11.43;;;4.30;;
81714;SDS011;71125;44.066;2.982;2023-08-24T08:36:43;11.77;;;4.68;;
81714;SDS011;71125;44.066;2.982;2023-08-24T08:39:09;9.48;;;3.85;;
81714;SDS011;71125;44.066;2.982;2023-08-24T08:41:39;8.00;;;3.80;;
81714;SDS011;71125;44.066;2.982;2023-08-24T08:44:07;10.60;;;3.85;;
81714;SDS011;71125;44.066;2.982;2023-08-24T08:46:35;19.85;;;4.38;;
81714;SDS011;71125;44.066;2.982;2023-08-24T08:49:01;10.68;;;4.13;;
81714;SDS011;71125;44.066;2.982;2023-08-24T08:51:28;10.70;;;4.18;;
81714;SDS011;71125;44.066;2.982;2023-08-24T08:53:55;9.10;;;3.65;;
81714;SDS011;71125;44.066;2.982;2023-08-24T08:56:21;7.05;;;3.83;;
81714;SDS011;71125;44.066;2.982;2023-08-24T08:58:47;9.88;;;3.78;;
81714;SDS011;71125;44.066;2.982;2023-08-24T09:01:14;18.17;;;3.80;;
81714;SDS011;71125;44.066;2.982;2023-08-24T09:03:40;8.73;;;3.75;;
81714;SDS011;71125;44.066;2.982;2023-08-24T09:06:09;9.98;;;3.63;;
81714;SDS011;71125;44.066;2.982;2023-08-24T09:08:35;13.63;;;3.10;;
81714;SDS011;71125;44.066;2.982;2023-08-24T09:11:02;6.93;;;2.90;;
81714;SDS011;71125;44.066;2.982;2023-08-24T09:13:28;10.20;;;3.10;;
81714;SDS011;71125;44.066;2.982;2023-08-24T09:16:02;9.45;;;3.08;;
81714;SDS011;71125;44.066;2.982;2023-08-24T09:18:39;6.55;;;2.92;;
81714;SDS011;71125;44.066;2.982;2023-08-24T09:21:08;7.97;;;3.45;;
81714;SDS011;71125;44.066;2.982;2023-08-24T09:23:34;5.22;;;2.78;;
81714;SDS011;71125;44.066;2.982;2023-08-24T09:26:00;7.10;;;2.70;;
81714;SDS011;71125;44.066;2.982;2023-08-24T09:28:26;7.57;;;2.45;;
81714;SDS011;71125;44.066;2.982;2023-08-24T09:30:53;5.82;;;2.63;;
81714;SDS011;71125;44.066;2.982;2023-08-24T09:33:22;6.72;;;2.67;;
81714;SDS011;71125;44.066;2.982;2023-08-24T09:35:52;7.88;;;1.90;;
81714;SDS011;71125;44.066;2.982;2023-08-24T09:38:18;3.90;;;1.90;;
81714;SDS011;71125;44.066;2.982;2023-08-24T09:40:45;7.05;;;1.95;;
81714;SDS011;71125;44.066;2.982;2023-08-24T09:43:16;6.22;;;2.03;;
81714;SDS011;71125;44.066;2.982;2023-08-24T09:45:52;4.07;;;1.80;;
81714;SDS011;71125;44.066;2.982;2023-08-24T09:48:18;4.78;;;1.70;;
81714;SDS011;71125;44.066;2.982;2023-08-24T09:50:45;3.63;;;1.58;;
81714;SDS011;71125;44.066;2.982;2023-08-24T09:53:18;3.70;;;1.52;;
81714;SDS011;71125;44.066;2.982;2023-08-24T09:55:49;4.00;;;1.55;;
81714;SDS011;71125;44.066;2.982;2023-08-24T09:58:19;4.75;;;1.48;;
81714;SDS011;71125;44.066;2.982;2023-08-24T10:00:46;2.53;;;1.75;;
81714;SDS011;71125;44.066;2.982;2023-08-24T10:03:15;9.02;;;1.83;;
81714;SDS011;71125;44.066;2.982;2023-08-24T10:05:44;10.07;;;2.03;;
81714;SDS011;71125;44.066;2.982;2023-08-24T10:08:10;7.60;;;1.92;;
81714;SDS011;71125;44.066;2.982;2023-08-24T10:10:36;3.08;;;1.75;;
81714;SDS011;71125;44.066;2.982;2023-08-24T10:13:06;5.43;;;3.13;;
81714;SDS011;71125;44.066;2.982;2023-08-24T10:15:33;4.38;;;1.95;;
81714;SDS011;71125;44.066;2.982;2023-08-24T10:18:00;4.15;;;1.70;;
81714;SDS011;71125;44.066;2.982;2023-08-24T10:20:27;5.38;;;1.48;;
81714;SDS011;71125;44.066;2.982;2023-08-24T10:22:57;2.83;;;1.73;;
81714;SDS011;71125;44.066;2.982;2023-08-24T10:25:24;3.42;;;1.83;;
81714;SDS011;71125;44.066;2.982;2023-08-24T10:27:53;4.22;;;1.85;;
81714;SDS011;71125;44.066;2.982;2023-08-24T10:30:20;4.18;;;1.60;;
81714;SDS011;71125;44.066;2.982;2023-08-24T10:32:46;5.88;;;2.00;;
81714;SDS011;71125;44.066;2.982;2023-08-24T10:35:14;3.53;;;1.67;;
81714;SDS011;71125;44.066;2.982;2023-08-24T10:37:45;2.75;;;1.55;;
81714;SDS011;71125;44.066;2.982;2023-08-24T10:40:11;4.63;;;1.80;;
81714;SDS011;71125;44.066;2.982;2023-08-24T10:42:45;2.78;;;1.40;;
81714;SDS011;71125;44.066;2.982;2023-08-24T10:45:14;3.70;;;1.52;;
81714;SDS011;71125;44.066;2.982;2023-08-24T10:47:45;5.53;;;1.77;;
81714;SDS011;71125;44.066;2.982;2023-08-24T10:50:13;4.20;;;1.90;;
81714;SDS011;71125;44.066;2.982;2023-08-24T10:52:42;4.28;;;1.75;;
81714;SDS011;71125;44.066;2.982;2023-08-24T10:55:22;2.17;;;1.50;;
81714;SDS011;71125;44.066;2.982;2023-08-24T10:57:55;2.97;;;1.40;;
81714;SDS011;71125;44.066;2.982;2023-08-24T11:00:25;6.57;;;1.80;;
81714;SDS011;71125;44.066;2.982;2023-08-24T11:02:52;3.95;;;1.83;;
81714;SDS011;71125;44.066;2.982;2023-08-24T11:05:19;3.45;;;1.60;;
81714;SDS011;71125;44.066;2.982;2023-08-24T11:08:04;6.18;;;1.88;;
81714;SDS011;71125;44.066;2.982;2023-08-24T11:13:15;2.50;;;1.83;;
81714;SDS011;71125;44.066;2.982;2023-08-24T11:15:48;6.10;;;2.10;;
81714;SDS011;71125;44.066;2.982;2023-08-24T11:18:22;3.45;;;1.95;;
81714;SDS011;71125;44.066;2.982;2023-08-24T11:20:52;3.80;;;2.00;;
81714;SDS011;71125;44.066;2.982;2023-08-24T11:23:19;5.38;;;2.50;;
81714;SDS011;71125;44.066;2.982;2023-08-24T11:25:46;3.65;;;2.22;;
81714;SDS011;71125;44.066;2.982;2023-08-24T11:28:17;3.83;;;2.22;;
81714;SDS011;71125;44.066;2.982;2023-08-24T11:30:47;3.53;;;2.33;;
81714;SDS011;71125;44.066;2.982;2023-08-24T11:33:14;5.38;;;2.03;;
81714;SDS011;71125;44.066;2.982;2023-08-24T11:35:41;3.60;;;2.30;;
81714;SDS011;71125;44.066;2.982;2023-08-24T11:38:08;5.28;;;3.00;;
81714;SDS011;71125;44.066;2.982;2023-08-24T11:40:34;3.88;;;2.50;;
81714;SDS011;71125;44.066;2.982;2023-08-24T11:43:00;2.95;;;2.30;;
81714;SDS011;71125;44.066;2.982;2023-08-24T11:45:30;6.38;;;2.95;;
81714;SDS011;71125;44.066;2.982;2023-08-24T11:50:22;4.43;;;2.55;;
81714;SDS011;71125;44.066;2.982;2023-08-24T11:52:49;3.85;;;3.03;;
81714;SDS011;71125;44.066;2.982;2023-08-24T11:55:15;4.57;;;2.30;;
81714;SDS011;71125;44.066;2.982;2023-08-24T11:57:41;5.88;;;2.63;;
81714;SDS011;71125;44.066;2.982;2023-08-24T12:00:10;4.68;;;2.88;;
81714;SDS011;71125;44.066;2.982;2023-08-24T12:02:39;4.30;;;2.55;;
81714;SDS011;71125;44.066;2.982;2023-08-24T12:05:28;3.92;;;2.33;;
81714;SDS011;71125;44.066;2.982;2023-08-24T12:07:54;3.58;;;2.35;;
81714;SDS011;71125;44.066;2.982;2023-08-24T12:10:21;3.65;;;2.00;;
81714;SDS011;71125;44.066;2.982;2023-08-24T12:12:48;5.18;;;2.58;;
81714;SDS011;71125;44.066;2.982;2023-08-24T12:15:15;5.60;;;2.40;;
81714;SDS011;71125;44.066;2.982;2023-08-24T12:17:43;4.85;;;2.60;;
81714;SDS011;71125;44.066;2.982;2023-08-24T12:20:30;5.70;;;2.42;;
81714;SDS011;71125;44.066;2.982;2023-08-24T12:22:57;4.03;;;2.40;;
81714;SDS011;71125;44.066;2.982;2023-08-24T12:25:25;3.22;;;2.13;;
81714;SDS011;71125;44.066;2.982;2023-08-24T12:28:15;4.95;;;2.42;;
81714;SDS011;71125;44.066;2.982;2023-08-24T12:30:50;5.18;;;2.20;;
81714;SDS011;71125;44.066;2.982;2023-08-24T12:33:27;7.55;;;2.38;;
81714;SDS011;71125;44.066;2.982;2023-08-24T12:35:56;3.22;;;2.22;;
81714;SDS011;71125;44.066;2.982;2023-08-24T12:38:24;4.63;;;2.13;;
81714;SDS011;71125;44.066;2.982;2023-08-24T12:40:50;3.65;;;2.03;;
81714;SDS011;71125;44.066;2.982;2023-08-24T12:43:19;2.63;;;1.83;;
81714;SDS011;71125;44.066;2.982;2023-08-24T12:45:54;3.83;;;2.00;;
81714;SDS011;71125;44.066;2.982;2023-08-24T12:48:20;2.85;;;1.98;;
81714;SDS011;71125;44.066;2.982;2023-08-24T12:50:46;3.45;;;2.20;;
81714;SDS011;71125;44.066;2.982;2023-08-24T12:53:14;3.67;;;1.90;;
81714;SDS011;71125;44.066;2.982;2023-08-24T12:55:40;4.20;;;2.10;;
81714;SDS011;71125;44.066;2.982;2023-08-24T12:58:12;5.35;;;1.83;;
81714;SDS011;71125;44.066;2.982;2023-08-24T13:00:49;3.13;;;2.03;;
81714;SDS011;71125;44.066;2.982;2023-08-24T13:03:15;3.67;;;2.03;;
81714;SDS011;71125;44.066;2.982;2023-08-24T13:05:41;2.92;;;1.73;;
81714;SDS011;71125;44.066;2.982;2023-08-24T13:08:07;4.25;;;1.92;;
81714;SDS011;71125;44.066;2.982;2023-08-24T13:10:39;4.13;;;1.98;;
81714;SDS011;71125;44.066;2.982;2023-08-24T13:13:07;5.07;;;1.92;;
81714;SDS011;71125;44.066;2.982;2023-08-24T13:15:38;3.33;;;1.90;;
81714;SDS011;71125;44.066;2.982;2023-08-24T13:18:04;2.90;;;1.67;;
81714;SDS011;71125;44.066;2.982;2023-08-24T13:20:48;3.17;;;2.03;;
81714;SDS011;71125;44.066;2.982;2023-08-24T13:23:19;3.58;;;1.80;;
81714;SDS011;71125;44.066;2.982;2023-08-24T13:25:46;1.90;;;1.48;;
81714;SDS011;71125;44.066;2.982;2023-08-24T13:28:21;4.68;;;1.63;;
81714;SDS011;71125;44.066;2.982;2023-08-24T13:30:50;5.18;;;2.10;;
81714;SDS011;71125;44.066;2.982;2023-08-24T13:33:25;2.60;;;1.92;;
81714;SDS011;71125;44.066;2.982;2023-08-24T13:36:03;5.90;;;1.85;;
81714;SDS011;71125;44.066;2.982;2023-08-24T13:38:30;2.95;;;1.90;;
81714;SDS011;71125;44.066;2.982;2023-08-24T13:40:56;3.17;;;1.65;;
81714;SDS011;71125;44.066;2.982;2023-08-24T13:43:25;4.25;;;1.92;;
81714;SDS011;71125;44.066;2.982;2023-08-24T13:45:51;2.88;;;1.73;;
81714;SDS011;71125;44.066;2.982;2023-08-24T13:48:26;3.45;;;1.83;;
81714;SDS011;71125;44.066;2.982;2023-08-24T13:51:04;3.15;;;1.88;;
81714;SDS011;71125;44.066;2.982;2023-08-24T13:53:30;4.00;;;1.92;;
81714;SDS011;71125;44.066;2.982;2023-08-24T13:55:59;4.57;;;2.10;;
81714;SDS011;71125;44.066;2.982;2023-08-24T13:58:25;4.70;;;1.80;;
81714;SDS011;71125;44.066;2.982;2023-08-24T14:00:56;2.53;;;1.88;;
81714;SDS011;71125;44.066;2.982;2023-08-24T14:03:22;3.83;;;1.80;;
81714;SDS011;71125;44.066;2.982;2023-08-24T14:05:48;4.97;;;1.90;;
81714;SDS011;71125;44.066;2.982;2023-08-24T14:08:16;4.45;;;1.52;;
81714;SDS011;71125;44.066;2.982;2023-08-24T14:10:42;3.22;;;1.65;;
81714;SDS011;71125;44.066;2.982;2023-08-24T14:13:13;3.90;;;1.65;;
81714;SDS011;71125;44.066;2.982;2023-08-24T14:15:40;3.20;;;1.80;;
81714;SDS011;71125;44.066;2.982;2023-08-24T14:18:06;4.47;;;1.80;;
81714;SDS011;71125;44.066;2.982;2023-08-24T14:20:35;3.47;;;1.83;;
81714;SDS011;71125;44.066;2.982;2023-08-24T14:23:04;5.22;;;1.60;;
81714;SDS011;71125;44.066;2.982;2023-08-24T14:25:31;2.65;;;1.65;;
81714;SDS011;71125;44.066;2.982;2023-08-24T14:28:01;5.53;;;2.50;;
81714;SDS011;71125;44.066;2.982;2023-08-24T14:30:31;3.08;;;1.58;;
81714;SDS011;71125;44.066;2.982;2023-08-24T14:32:57;3.40;;;1.83;;
81714;SDS011;71125;44.066;2.982;2023-08-24T14:35:23;6.32;;;1.80;;
81714;SDS011;71125;44.066;2.982;2023-08-24T14:37:52;2.75;;;1.60;;
81714;SDS011;71125;44.066;2.982;2023-08-24T14:40:19;2.30;;;1.63;;
81714;SDS011;71125;44.066;2.982;2023-08-24T14:42:47;4.30;;;1.67;;
81714;SDS011;71125;44.066;2.982;2023-08-24T14:45:14;7.40;;;1.90;;
81714;SDS011;71125;44.066;2.982;2023-08-24T14:47:46;4.53;;;1.63;;
81714;SDS011;71125;44.066;2.982;2023-08-24T14:50:12;4.97;;;1.75;;
81714;SDS011;71125;44.066;2.982;2023-08-24T14:52:39;2.47;;;1.20;;
81714;SDS011;71125;44.066;2.982;2023-08-24T14:55:06;2.70;;;1.83;;
81714;SDS011;71125;44.066;2.982;2023-08-24T14:57:43;2.42;;;1.33;;